createdAt,value
2019-04-14T00:00:29.282Z,11.22
2019-04-14T00:03:08.670Z,10.82
2019-04-14T00:05:38.523Z,11.55
2019-04-14T00:08:07.046Z,11.70
2019-04-14T00:10:35.736Z,11.53
2019-04-14T00:13:04.614Z,11.60
2019-04-14T00:15:39.520Z,10.48
2019-04-14T00:18:03.667Z,11.25
2019-04-14T00:20:32.105Z,11.60
2019-04-14T00:23:00.541Z,11.53
2019-04-14T00:25:29.040Z,10.68
2019-04-14T00:27:58.551Z,10.68
2019-04-14T00:30:27.308Z,12.03
2019-04-14T00:33:04.141Z,10.57
2019-04-14T00:35:51.574Z,11.55
2019-04-14T00:38:21.866Z,11.90
2019-04-14T00:41:09.312Z,11.60
2019-04-14T00:43:39.618Z,11.78
2019-04-14T00:46:12.562Z,10.95
2019-04-14T00:48:41.049Z,12.30
2019-04-14T00:51:09.491Z,11.80
2019-04-14T00:53:38.176Z,12.07
2019-04-14T00:56:06.877Z,11.25
2019-04-14T00:58:35.312Z,11.00
2019-04-14T01:01:04.884Z,12.50
2019-04-14T01:03:33.314Z,11.48
2019-04-14T01:06:01.828Z,12.33
2019-04-14T01:08:31.327Z,12.30
2019-04-14T01:11:00.899Z,11.30
2019-04-14T01:13:29.494Z,12.23
2019-04-14T01:16:06.396Z,11.60
2019-04-14T01:18:28.087Z,11.45
2019-04-14T01:20:57.853Z,12.00
2019-04-14T01:23:26.359Z,11.70
2019-04-14T01:25:56.401Z,11.93
2019-04-14T01:28:24.933Z,12.10
2019-04-14T01:30:54.370Z,11.63
2019-04-14T01:33:22.960Z,11.70
2019-04-14T01:35:51.645Z,11.45
2019-04-14T01:38:21.106Z,11.97
2019-04-14T01:40:50.910Z,12.07
2019-04-14T01:43:19.487Z,11.07
2019-04-14T01:45:59.530Z,12.40
2019-04-14T01:48:19.218Z,12.00
2019-04-14T01:51:04.870Z,11.60
2019-04-14T01:53:37.977Z,11.80
2019-04-14T01:56:08.083Z,11.90
2019-04-14T01:58:44.708Z,11.93
2019-04-14T02:01:14.986Z,12.70
2019-04-14T02:03:43.473Z,12.03
2019-04-14T02:06:11.916Z,11.97
2019-04-14T02:08:41.439Z,11.95
2019-04-14T02:11:10.132Z,11.63
2019-04-14T02:13:39.672Z,11.93
2019-04-14T02:16:18.780Z,12.40
2019-04-14T02:18:38.546Z,11.53
2019-04-14T02:21:08.422Z,12.30
2019-04-14T02:23:36.972Z,12.35
2019-04-14T02:26:06.785Z,11.30
2019-04-14T02:28:35.414Z,11.70
2019-04-14T02:31:18.065Z,12.37
2019-04-14T02:34:21.977Z,12.30
2019-04-14T02:36:36.238Z,11.70
2019-04-14T02:44:09.709Z,12.30
2019-04-14T02:46:39.846Z,12.50
2019-04-14T02:49:08.295Z,11.95
2019-04-14T02:56:28.053Z,12.47
2019-04-14T02:58:58.731Z,12.20
2019-04-14T03:01:29.561Z,11.88
2019-04-14T03:03:56.239Z,12.90
2019-04-14T03:06:50.413Z,12.82
2019-04-14T03:11:31.221Z,12.10
2019-04-14T03:17:00.988Z,13.00
2019-04-14T03:19:35.411Z,12.90
2019-04-14T03:22:18.343Z,11.63
2019-04-14T03:24:32.855Z,11.45
2019-04-14T03:27:19.527Z,12.90
2019-04-14T03:32:23.701Z,11.50
2019-04-14T03:34:59.209Z,12.45
2019-04-14T03:37:39.655Z,12.20
2019-04-14T03:47:15.146Z,11.77
2019-04-14T03:50:00.956Z,11.88
2019-04-14T03:52:16.530Z,11.53
2019-04-14T03:54:38.126Z,11.50
2019-04-14T03:56:51.407Z,12.65
2019-04-14T03:59:20.085Z,12.28
2019-04-14T04:01:48.507Z,11.95
2019-04-14T04:04:18.244Z,11.97
2019-04-14T04:06:46.908Z,12.20
2019-04-14T04:09:15.404Z,11.37
2019-04-14T04:11:43.832Z,11.70
2019-04-14T04:14:12.281Z,12.43
2019-04-14T04:16:46.112Z,12.70
2019-04-14T04:19:25.177Z,12.75
2019-04-14T04:21:55.526Z,12.23
2019-04-14T04:24:35.138Z,12.68
2019-04-14T04:27:05.220Z,11.90
2019-04-14T04:29:41.979Z,12.98
2019-04-14T04:32:20.864Z,12.83
2019-04-14T04:34:51.267Z,12.65
2019-04-14T04:37:24.045Z,11.88
2019-04-14T04:39:56.868Z,11.40
2019-04-14T04:42:26.465Z,11.83
2019-04-14T04:44:55.335Z,11.78
2019-04-14T04:47:23.820Z,12.10
2019-04-14T04:49:53.247Z,12.13
2019-04-14T04:52:21.772Z,12.35
2019-04-14T04:54:50.228Z,11.55
2019-04-14T04:57:19.820Z,11.60
2019-04-14T04:59:49.632Z,12.40
2019-04-14T05:02:18.129Z,12.33
2019-04-14T05:04:46.557Z,12.25
2019-04-14T05:07:14.978Z,12.28
2019-04-14T05:09:49.019Z,11.85
2019-04-14T05:12:19.590Z,11.80
2019-04-14T05:14:55.235Z,11.33
2019-04-14T05:17:43.267Z,12.13
2019-04-14T05:20:11.712Z,12.47
2019-04-14T05:22:40.153Z,12.90
2019-04-14T05:25:09.958Z,12.33
2019-04-14T05:27:38.768Z,11.97
2019-04-14T05:30:08.898Z,11.40
2019-04-14T05:32:37.432Z,10.82
2019-04-14T05:35:07.404Z,11.05
2019-04-14T05:37:35.957Z,11.60
2019-04-14T05:40:06.329Z,10.93
2019-04-14T05:42:34.768Z,10.75
2019-04-14T05:45:04.481Z,10.43
2019-04-14T05:47:32.997Z,10.48
2019-04-14T05:50:01.440Z,10.30
2019-04-14T05:52:29.863Z,11.30
2019-04-14T05:54:58.535Z,10.00
2019-04-14T05:57:26.997Z,10.60
2019-04-14T05:59:56.933Z,10.63
2019-04-14T06:02:27.863Z,10.35
2019-04-14T06:04:55.637Z,10.40
2019-04-14T06:07:24.078Z,10.03
2019-04-14T06:09:52.502Z,10.03
2019-04-14T06:12:20.961Z,9.57
2019-04-14T06:14:49.372Z,9.60
2019-04-14T06:17:17.794Z,9.93
2019-04-14T06:19:46.242Z,9.80
2019-04-14T06:22:14.674Z,9.68
2019-04-14T06:24:43.174Z,10.08
2019-04-14T06:27:11.874Z,9.60
2019-04-14T06:29:40.298Z,9.60
2019-04-14T06:32:15.835Z,9.23
2019-04-14T06:34:45.896Z,9.93
2019-04-14T06:37:18.654Z,9.53
2019-04-14T06:39:48.803Z,9.43
2019-04-14T06:42:17.220Z,9.80
2019-04-14T06:44:45.655Z,10.20
2019-04-14T06:47:14.095Z,9.80
2019-04-14T06:49:48.972Z,9.53
2019-04-14T06:52:12.671Z,9.23
2019-04-14T06:54:41.113Z,9.33
2019-04-14T06:57:09.536Z,9.40
2019-04-14T06:59:37.966Z,9.90
2019-04-14T07:02:08.558Z,9.40
2019-04-14T07:04:36.554Z,9.10
2019-04-14T07:07:04.977Z,9.00
2019-04-14T07:09:33.417Z,8.80
2019-04-14T07:12:01.951Z,9.58
2019-04-14T07:14:32.048Z,8.40
2019-04-14T07:17:00.645Z,8.35
2019-04-14T07:19:29.410Z,8.70
2019-04-14T07:21:58.126Z,8.40
2019-04-14T07:24:26.580Z,8.63
2019-04-14T07:26:55.008Z,8.90
2019-04-14T07:29:25.074Z,9.03
2019-04-14T07:31:55.152Z,8.85
2019-04-14T07:34:36.910Z,9.30
2019-04-14T07:37:12.746Z,8.05
2019-04-14T07:39:42.806Z,8.60
2019-04-14T07:42:15.539Z,8.60
2019-04-14T07:44:45.744Z,8.65
2019-04-14T07:47:15.822Z,8.73
2019-04-14T07:49:48.614Z,8.20
2019-04-14T07:52:24.502Z,8.20
2019-04-14T07:55:10.369Z,7.85
2019-04-14T07:57:56.765Z,8.05
2019-04-14T08:00:44.901Z,8.20
2019-04-14T08:03:23.910Z,8.30
2019-04-14T08:05:52.365Z,8.70
2019-04-14T08:08:20.801Z,7.90
2019-04-14T08:10:49.235Z,8.50
2019-04-14T08:13:17.654Z,8.05
2019-04-14T08:15:46.382Z,8.33
2019-04-14T08:18:14.837Z,7.58
2019-04-14T08:20:43.328Z,8.40
2019-04-14T08:23:11.763Z,8.55
2019-04-14T08:25:40.254Z,7.20
2019-04-14T08:28:08.678Z,7.97
2019-04-14T08:30:37.217Z,7.80
2019-04-14T08:33:05.674Z,8.60
2019-04-14T08:35:34.123Z,7.40
2019-04-14T08:38:02.997Z,7.65
2019-04-14T08:40:31.514Z,7.67
2019-04-14T08:43:04.237Z,7.80
2019-04-14T08:45:39.761Z,7.15
2019-04-14T08:48:24.625Z,7.60
2019-04-14T08:51:11.085Z,7.87
2019-04-14T08:53:41.246Z,8.18
2019-04-14T08:56:26.395Z,8.13
2019-04-14T08:59:12.680Z,8.03
2019-04-14T09:01:57.285Z,8.45
2019-04-14T09:04:30.021Z,7.42
2019-04-14T09:07:08.884Z,7.95
2019-04-14T09:09:41.460Z,8.30
2019-04-14T09:12:15.691Z,8.58
2019-04-14T09:14:41.689Z,9.08
2019-04-14T09:17:10.105Z,8.80
2019-04-14T09:19:39.435Z,9.27
2019-04-14T09:22:07.905Z,9.55
2019-04-14T09:24:36.586Z,8.88
2019-04-14T09:27:05.069Z,8.60
2019-04-14T09:29:33.545Z,8.30
2019-04-14T09:32:02.050Z,8.53
2019-04-14T09:34:30.464Z,8.53
2019-04-14T09:36:59.166Z,8.50
2019-04-14T09:39:27.906Z,8.05
2019-04-14T09:41:56.351Z,9.20
2019-04-14T09:44:24.788Z,9.30
2019-04-14T09:46:53.218Z,8.60
2019-04-14T09:49:21.635Z,8.60
2019-04-14T09:51:50.104Z,8.30
2019-04-14T09:54:18.535Z,8.50
2019-04-14T09:56:46.964Z,9.05
2019-04-14T09:59:15.423Z,8.80
2019-04-14T10:01:43.937Z,8.60
2019-04-14T10:04:12.355Z,8.25
2019-04-14T10:06:41.059Z,8.43
2019-04-14T10:09:09.640Z,8.10
2019-04-14T10:11:47.908Z,8.18
2019-04-14T10:14:08.345Z,8.30
2019-04-14T10:16:36.784Z,8.20
2019-04-14T10:19:05.200Z,8.57
2019-04-14T10:21:33.653Z,8.90
2019-04-14T10:24:02.074Z,8.78
2019-04-14T10:26:30.559Z,8.00
2019-04-14T10:28:59.065Z,8.80
2019-04-14T10:31:27.489Z,8.80
2019-04-14T10:33:55.909Z,9.18
2019-04-14T10:36:24.372Z,9.15
2019-04-14T10:38:52.871Z,10.40
2019-04-14T10:41:27.587Z,10.35
2019-04-14T10:43:56.023Z,10.50
2019-04-14T10:46:24.437Z,12.23
2019-04-14T10:48:52.865Z,11.70
2019-04-14T10:51:29.904Z,11.93
2019-04-14T10:53:51.767Z,12.50
2019-04-14T10:56:20.203Z,11.73
2019-04-14T10:58:48.670Z,11.90
2019-04-14T11:01:17.095Z,11.55
2019-04-14T11:03:45.517Z,11.43
2019-04-14T11:06:30.409Z,10.98
2019-04-14T11:08:58.832Z,12.15
2019-04-14T11:11:27.257Z,11.90
2019-04-14T11:13:55.732Z,11.68
2019-04-14T11:16:24.229Z,12.35
2019-04-14T11:18:52.650Z,11.65
2019-04-14T11:21:21.112Z,11.53
2019-04-14T11:23:49.532Z,11.22
2019-04-14T11:26:17.957Z,11.22
2019-04-14T11:28:46.425Z,10.30
2019-04-14T11:31:16.740Z,10.85
2019-04-14T11:33:58.592Z,10.20
2019-04-14T11:36:43.846Z,9.70
2019-04-14T11:39:13.945Z,10.10
2019-04-14T11:41:42.433Z,10.08
2019-04-14T11:44:10.948Z,11.10
2019-04-14T11:46:39.498Z,10.58
2019-04-14T11:49:08.002Z,10.80
2019-04-14T11:51:36.430Z,10.55
2019-04-14T11:54:04.954Z,10.97
2019-04-14T11:56:33.406Z,9.55
2019-04-14T11:59:02.295Z,9.08
2019-04-14T12:01:32.474Z,10.20
2019-04-14T12:04:08.548Z,10.60
2019-04-14T12:06:50.490Z,8.78
2019-04-14T12:09:23.569Z,9.70
2019-04-14T12:11:51.993Z,10.15
2019-04-14T12:14:20.439Z,10.10
2019-04-14T12:16:48.857Z,9.43
2019-04-14T12:19:17.294Z,9.53
2019-04-14T12:21:45.740Z,9.70
2019-04-14T12:24:14.168Z,9.53
2019-04-14T12:26:42.832Z,9.30
2019-04-14T12:29:11.820Z,9.58
2019-04-14T12:31:41.982Z,9.30
2019-04-14T12:34:10.518Z,9.70
2019-04-14T12:36:38.959Z,9.40
2019-04-14T12:39:10.454Z,9.20
2019-04-14T12:41:46.617Z,9.35
2019-04-14T12:44:32.696Z,9.70
2019-04-14T12:47:02.791Z,9.58
2019-04-14T12:49:32.914Z,10.50
2019-04-14T12:52:03.242Z,10.13
2019-04-14T12:54:31.705Z,10.48
2019-04-14T12:57:00.130Z,9.63
2019-04-14T12:59:28.801Z,11.35
2019-04-14T13:02:11.377Z,10.27
2019-04-14T13:04:39.880Z,10.30
2019-04-14T13:07:08.301Z,9.90
2019-04-14T13:09:36.865Z,10.82
2019-04-14T13:12:05.355Z,11.40
2019-04-14T13:14:33.794Z,11.80
2019-04-14T13:17:02.258Z,10.93
2019-04-14T13:19:30.695Z,11.18
2019-04-14T13:21:59.109Z,11.00
2019-04-14T13:24:27.552Z,11.20
2019-04-14T13:26:55.975Z,11.28
2019-04-14T13:29:24.397Z,10.80
2019-04-14T13:31:52.895Z,11.60
2019-04-14T13:34:21.308Z,11.00
2019-04-14T13:36:49.743Z,11.60
2019-04-14T13:39:18.449Z,11.20
2019-04-14T13:41:46.882Z,11.38
2019-04-14T13:44:15.312Z,12.20
2019-04-14T13:46:43.754Z,11.73
2019-04-14T13:49:12.175Z,11.63
2019-04-14T13:51:40.618Z,11.80
2019-04-14T13:54:09.057Z,12.10
2019-04-14T13:56:38.328Z,12.13
2019-04-14T13:59:06.758Z,12.63
2019-04-14T14:01:35.192Z,12.53
2019-04-14T14:04:03.694Z,12.30
2019-04-14T14:06:32.125Z,13.75
2019-04-14T14:09:00.565Z,12.55
2019-04-14T14:11:36.663Z,12.10
2019-04-14T14:14:07.010Z,12.13
2019-04-14T14:16:53.334Z,13.28
2019-04-14T14:19:23.425Z,12.80
2019-04-14T14:22:02.501Z,13.65
2019-04-14T14:24:32.581Z,13.88
2019-04-14T14:27:02.679Z,13.00
2019-04-14T14:29:31.173Z,12.30
2019-04-14T14:32:01.495Z,12.30
2019-04-14T14:34:29.927Z,13.38
2019-04-14T14:36:58.347Z,12.68
2019-04-14T14:39:26.834Z,13.03
2019-04-14T14:41:55.266Z,12.68
2019-04-14T14:44:25.396Z,13.80
2019-04-14T14:47:04.250Z,12.73
2019-04-14T14:49:50.537Z,13.60
2019-04-14T14:52:20.629Z,13.60
2019-04-14T14:54:49.057Z,12.80
2019-04-14T14:57:17.743Z,13.15
2019-04-14T14:59:46.189Z,13.30
2019-04-14T15:02:14.613Z,12.75
2019-04-14T15:04:43.040Z,13.35
2019-04-14T15:07:11.789Z,13.50
2019-04-14T15:09:40.289Z,13.30
2019-04-14T15:12:08.729Z,12.90
2019-04-14T15:14:37.173Z,13.80
2019-04-14T15:17:08.261Z,13.48
2019-04-14T15:19:35.761Z,12.20
2019-04-14T15:22:04.290Z,13.08
2019-04-14T15:24:32.978Z,12.88
2019-04-14T15:27:02.288Z,13.18
2019-04-14T15:29:30.737Z,12.93
2019-04-14T15:31:59.148Z,12.95
2019-04-14T15:34:27.592Z,12.23
2019-04-14T15:36:56.077Z,11.20
2019-04-14T15:39:24.511Z,11.50
2019-04-14T15:41:52.934Z,11.10
2019-04-14T15:44:21.381Z,10.70
2019-04-14T15:46:49.815Z,11.20
2019-04-14T15:49:18.249Z,10.70
2019-04-14T15:51:46.700Z,10.00
2019-04-14T15:54:15.130Z,10.08
2019-04-14T15:57:01.271Z,9.33
2019-04-14T15:59:49.385Z,9.65
2019-04-14T16:02:25.382Z,9.53
2019-04-14T16:05:13.558Z,10.00
2019-04-14T16:07:46.592Z,9.23
2019-04-14T16:10:19.312Z,8.95
2019-04-14T16:12:58.188Z,9.85
2019-04-14T16:15:44.352Z,9.60
2019-04-14T16:18:23.480Z,10.10
2019-04-14T16:20:51.909Z,10.03
2019-04-14T16:23:20.337Z,8.50
2019-04-14T16:25:56.509Z,9.00
2019-04-14T16:28:35.876Z,8.38
2019-04-14T16:31:22.028Z,8.13
2019-04-14T16:34:08.328Z,8.55
2019-04-14T16:36:36.817Z,8.03
2019-04-14T16:39:06.649Z,8.60
2019-04-14T16:41:35.074Z,8.80
2019-04-14T16:44:03.961Z,8.20
2019-04-14T16:46:32.381Z,8.30
2019-04-14T16:49:00.876Z,7.87
2019-04-14T16:51:34.026Z,7.60
2019-04-14T16:54:04.158Z,7.30
2019-04-14T16:56:39.803Z,7.97
2019-04-14T16:59:08.993Z,7.47
2019-04-14T17:01:39.057Z,8.40
2019-04-14T17:04:07.778Z,8.18
2019-04-14T17:06:36.192Z,8.20
2019-04-14T17:09:06.960Z,8.45
2019-04-14T17:11:35.400Z,7.60
2019-04-14T17:14:08.496Z,8.18
2019-04-14T17:16:53.642Z,7.30
2019-04-14T17:19:23.724Z,7.60
2019-04-14T17:21:53.895Z,7.75
2019-04-14T17:24:24.299Z,7.67
2019-04-14T17:26:54.590Z,7.30
2019-04-14T17:29:24.982Z,7.40
2019-04-14T17:32:11.324Z,7.92
2019-04-14T17:34:54.656Z,8.20
2019-04-14T17:37:33.791Z,7.33
2019-04-14T17:40:09.636Z,7.80
2019-04-14T17:42:39.749Z,8.25
2019-04-14T17:45:13.064Z,8.15
2019-04-14T17:47:52.081Z,7.20
2019-04-14T17:50:39.745Z,8.00
2019-04-14T17:53:08.226Z,8.18
2019-04-14T17:55:49.437Z,8.33
2019-04-14T17:58:10.079Z,8.73
2019-04-14T18:00:49.166Z,8.25
2019-04-14T18:03:21.901Z,9.10
2019-04-14T18:05:54.693Z,8.20
2019-04-14T18:08:36.258Z,8.10
2019-04-14T18:11:06.650Z,8.05
2019-04-14T18:13:39.149Z,8.23
2019-04-14T18:16:09.206Z,8.10
2019-04-14T18:18:55.612Z,7.70
2019-04-14T18:21:24.302Z,8.05
2019-04-14T18:23:52.740Z,8.77
2019-04-14T18:26:21.181Z,8.60
2019-04-14T18:28:56.704Z,9.60
2019-04-14T18:31:35.911Z,8.63
2019-04-14T18:34:06.076Z,8.60
2019-04-14T18:36:36.455Z,8.30
2019-04-14T18:39:17.929Z,8.88
2019-04-14T18:42:05.885Z,9.00
2019-04-14T18:44:35.968Z,7.78
2019-04-14T18:47:18.026Z,8.43
2019-04-14T18:49:48.124Z,8.35
2019-04-14T18:52:27.097Z,8.15
2019-04-14T18:54:57.190Z,8.43
2019-04-14T18:57:27.268Z,9.63
2019-04-14T18:59:57.341Z,9.30
2019-04-14T19:02:25.853Z,8.80
2019-04-14T19:04:54.287Z,7.97
2019-04-14T19:07:23.610Z,8.88
2019-04-14T19:09:52.060Z,8.90
2019-04-14T19:12:22.141Z,8.60
2019-04-14T19:14:55.180Z,9.20
2019-04-14T19:17:37.361Z,7.92
2019-04-14T19:20:07.256Z,7.80
2019-04-14T19:22:35.674Z,8.40
2019-04-14T19:25:08.510Z,7.90
2019-04-14T19:27:35.633Z,8.23
2019-04-14T19:30:06.097Z,7.85
2019-04-14T19:32:34.571Z,8.28
2019-04-14T19:35:03.031Z,8.50
2019-04-14T19:37:31.527Z,8.35
2019-04-14T19:40:00.008Z,8.28
2019-04-14T19:42:28.433Z,8.65
2019-04-14T19:44:56.858Z,8.60
2019-04-14T19:47:25.316Z,8.18
2019-04-14T19:49:53.833Z,8.00
2019-04-14T19:52:22.298Z,7.60
2019-04-14T19:54:50.745Z,7.90
2019-04-14T19:57:19.282Z,7.33
2019-04-14T19:59:47.798Z,7.35
2019-04-14T20:02:16.268Z,8.10
2019-04-14T20:04:44.693Z,8.25
2019-04-14T20:07:13.233Z,7.95
2019-04-14T20:09:41.697Z,7.80
2019-04-14T20:12:10.307Z,8.50
2019-04-14T20:14:38.721Z,6.75
2019-04-14T20:17:23.627Z,7.55
2019-04-14T20:20:09.639Z,7.95
2019-04-14T20:22:39.717Z,7.28
2019-04-14T20:25:15.980Z,7.42
2019-04-14T20:27:46.065Z,8.45
2019-04-14T20:30:19.013Z,7.50
2019-04-14T20:32:49.086Z,6.92
2019-04-14T20:35:17.553Z,6.60
2019-04-14T20:37:45.988Z,6.80
2019-04-14T20:40:14.473Z,5.90
2019-04-14T20:42:42.918Z,7.00
2019-04-14T20:45:12.166Z,5.90
2019-04-14T20:47:40.592Z,6.17
2019-04-14T20:50:09.387Z,6.37
2019-04-14T20:52:37.802Z,6.20
2019-04-14T20:55:07.746Z,6.80
2019-04-14T20:57:36.180Z,6.20
2019-04-14T21:00:06.246Z,6.30
2019-04-14T21:02:36.308Z,5.90
2019-04-14T21:05:23.509Z,6.00
2019-04-14T21:08:02.613Z,5.65
2019-04-14T21:10:44.409Z,5.42
2019-04-14T21:13:20.192Z,4.70
2019-04-14T21:15:50.517Z,6.03
2019-04-14T21:18:35.665Z,5.00
2019-04-14T21:21:05.773Z,5.03
2019-04-14T21:23:44.508Z,4.90
2019-04-14T21:26:26.192Z,4.30
2019-04-14T21:28:54.946Z,4.43
2019-04-14T21:31:30.993Z,3.90
2019-04-14T21:34:04.093Z,4.73
2019-04-14T21:36:50.249Z,4.28
2019-04-14T21:39:40.621Z,4.00
2019-04-14T21:42:08.561Z,3.90
2019-04-14T21:44:36.994Z,4.25
2019-04-14T21:47:05.604Z,3.67
2019-04-14T21:49:34.189Z,4.17
2019-04-14T21:52:10.056Z,4.42
2019-04-14T21:54:40.264Z,3.95
2019-04-14T21:57:26.060Z,3.90
2019-04-14T22:00:05.214Z,4.20
2019-04-14T22:02:51.353Z,3.85
2019-04-14T22:05:21.442Z,3.80
2019-04-14T22:08:07.447Z,4.20
2019-04-14T22:10:37.524Z,3.90
2019-04-14T22:13:06.010Z,3.92
2019-04-14T22:15:34.690Z,4.20
2019-04-14T22:18:03.135Z,3.75
2019-04-14T22:20:31.554Z,3.83
2019-04-14T22:23:01.040Z,3.67
2019-04-14T22:25:29.503Z,4.00
2019-04-14T22:27:58.176Z,4.40
2019-04-14T22:30:26.847Z,3.50
2019-04-14T22:32:55.288Z,3.60
2019-04-14T22:35:23.873Z,4.20
2019-04-14T22:37:52.305Z,4.20
2019-04-14T22:40:20.806Z,4.20
2019-04-14T22:42:49.224Z,4.50
2019-04-14T22:45:17.657Z,3.80
2019-04-14T22:47:46.102Z,4.10
2019-04-14T22:50:14.588Z,4.08
2019-04-14T22:52:43.257Z,4.00
2019-04-14T22:55:11.901Z,4.08
2019-04-14T22:57:40.410Z,3.98
2019-04-14T23:00:13.617Z,4.10
2019-04-14T23:02:55.484Z,4.28
2019-04-14T23:05:41.577Z,4.50
2019-04-14T23:08:26.985Z,4.50
2019-04-14T23:11:12.973Z,4.62
2019-04-14T23:13:59.316Z,4.85
2019-04-14T23:16:35.438Z,5.25
2019-04-14T23:19:14.656Z,4.70
2019-04-14T23:21:56.388Z,4.50
2019-04-14T23:24:26.481Z,5.20
2019-04-14T23:26:54.933Z,4.60
2019-04-14T23:29:23.358Z,4.30
2019-04-14T23:31:51.797Z,4.60
2019-04-14T23:34:20.221Z,4.83
2019-04-14T23:36:48.894Z,5.30
2019-04-14T23:39:17.334Z,4.28
2019-04-14T23:41:45.754Z,4.37
2019-04-14T23:44:14.485Z,4.70
2019-04-14T23:46:42.918Z,4.90
2019-04-14T23:49:11.590Z,4.10
2019-04-14T23:51:40.018Z,4.60
2019-04-14T23:54:08.450Z,4.15
2019-04-14T23:56:36.871Z,4.60
2019-04-14T23:59:05.600Z,4.78
